Time;durP1;ratioP1;P1;durP2;ratioP2;P2;SDS_P1;SDS_P2;PMS_P1;PMS_P2;Temp;Humidity;BMP_temperature;BMP_pressure;BME280_temperature;BME280_humidity;BME280_pressure;Samples;Min_cycle;Max_cycle;Signal;HPM_P1;HPM_P2
2022/04/21 10:31:57;;;;;;;6.57;2.78;;;22.40;69.90;;;;;;5157522;27;20049;-69
2022/04/21 10:34:40;;;;;;;6.95;2.38;;;22.30;69.90;;;;;;5156142;27;20082;-69
2022/04/21 10:37:13;;;;;;;5.55;2.72;;;22.50;69.90;;;;;;5156021;27;20077;-69
2022/04/21 10:39:40;;;;;;;5.70;2.97;;;22.30;65.80;;;;;;5156281;27;20067;-70
2022/04/21 10:42:17;;;;;;;8.30;2.70;;;22.30;67.20;;;;;;5138784;27;20126;-70
2022/04/21 10:44:49;;;;;;;5.88;2.53;;;22.30;67.60;;;;;;5155976;27;20051;-70
2022/04/21 10:47:38;;;;;;;4.82;2.70;;;22.30;69.80;;;;;;5156279;27;20372;-70
2022/04/21 10:50:24;;;;;;;6.75;2.70;;;22.30;70.10;;;;;;5157083;27;20058;-70
2022/04/21 10:58:35;;;;;;;8.13;3.08;;;22.40;69.90;;;;;;5155146;27;20051;-70
2022/04/21 11:01:19;;;;;;;7.18;2.95;;;22.20;67.30;;;;;;5135909;27;20054;-69
2022/04/21 11:03:46;;;;;;;6.47;2.83;;;22.30;69.90;;;;;;5154971;27;20121;-69
2022/04/21 11:06:12;;;;;;;6.32;2.63;;;22.30;70.50;;;;;;5155070;27;20042;-70
2022/04/21 11:08:38;;;;;;;6.28;3.00;;;22.30;70.10;;;;;;5155358;27;20518;-65
2022/04/21 11:11:04;;;;;;;9.23;3.08;;;22.30;70.90;;;;;;5155637;27;20070;-70
2022/04/21 11:13:48;;;;;;;8.68;3.13;;;22.10;70.20;;;;;;5154446;27;20129;-65
2022/04/21 11:16:54;;;;;;;9.45;3.05;;;22.30;67.80;;;;;;5154527;27;20055;-70
2022/04/21 11:19:40;;;;;;;5.80;2.65;;;22.30;68.00;;;;;;5156304;27;20057;-68
2022/04/21 11:22:09;;;;;;;5.10;2.60;;;22.20;70.40;;;;;;5155358;27;20167;-67
2022/04/21 11:25:03;;;;;;;8.18;3.05;;;22.10;70.10;;;;;;5120073;27;20047;-69
2022/04/21 11:27:29;;;;;;;5.30;2.78;;;22.20;70.40;;;;;;5155304;27;20396;-70
2022/04/21 11:30:03;;;;;;;6.07;3.40;;;22.50;70.70;;;;;;5154535;27;20088;-70
2022/04/21 11:32:29;;;;;;;4.50;2.45;;;22.40;68.00;;;;;;5138344;27;20072;-69
2022/04/21 11:34:59;;;;;;;7.07;2.78;;;22.50;70.50;;;;;;5136796;27;20053;-66
2022/04/21 11:37:43;;;;;;;7.57;2.80;;;22.50;70.50;;;;;;5137564;27;20047;-68
2022/04/21 11:40:39;;;;;;;4.47;2.60;;;22.50;70.50;;;;;;5154884;27;20053;-67
2022/04/21 11:43:15;;;;;;;5.45;2.67;;;22.30;70.30;;;;;;5149748;27;20065;-70
2022/04/21 11:45:44;;;;;;;5.93;2.90;;;22.30;70.50;;;;;;5135391;27;20047;-70
2022/04/21 11:48:14;;;;;;;4.70;2.65;;;22.30;70.60;;;;;;5153645;27;20129;-69
2022/04/21 11:50:44;;;;;;;7.38;2.65;;;22.00;70.30;;;;;;5156228;27;20586;-68
2022/04/21 11:53:18;;;;;;;5.30;2.80;;;22.50;68.30;;;;;;5136356;27;20403;-69
2022/04/21 11:55:45;;;;;;;6.55;2.90;;;22.10;70.60;;;;;;5154664;27;20042;-70
2022/04/21 11:58:11;;;;;;;5.05;3.00;;;22.10;70.40;;;;;;5137498;27;20054;-69
2022/04/21 12:08:49;;;;;;;8.45;2.80;;;22.10;70.30;;;;;;5133833;27;20467;-69
2022/04/21 12:11:17;;;;;;;6.28;2.70;;;22.40;70.40;;;;;;5119556;27;20054;-64
2022/04/21 12:13:47;;;;;;;6.45;2.47;;;22.20;70.20;;;;;;5133606;27;20507;-64
2022/04/21 12:16:39;;;;;;;4.68;2.88;;;22.00;70.10;;;;;;5153811;27;20053;-65
2022/04/21 12:19:37;;;;;;;4.95;2.65;;;22.20;66.20;;;;;;5137203;27;20099;-66
2022/04/21 12:22:11;;;;;;;8.02;2.63;;;22.10;70.30;;;;;;5155682;27;20435;-65
2022/04/21 12:24:44;;;;;;;7.53;2.80;;;22.00;70.10;;;;;;5136076;27;20042;-65
2022/04/21 12:27:14;;;;;;;6.20;2.97;;;22.00;70.00;;;;;;5154136;27;20038;-65
2022/04/21 12:29:51;;;;;;;4.72;2.85;;;22.20;70.20;;;;;;5155977;27;20407;-66
2022/04/21 12:32:19;;;;;;;5.20;3.25;;;21.90;70.10;;;;;;5176453;27;20090;-65
2022/04/21 12:34:45;;;;;;;5.63;3.50;;;22.10;70.00;;;;;;5138650;27;20394;-65
2022/04/21 12:37:11;;;;;;;5.43;3.20;;;21.90;69.90;;;;;;5176010;27;20042;-65
2022/04/21 12:39:37;;;;;;;6.43;3.25;;;22.00;69.90;;;;;;5174421;27;20398;-66
2022/04/21 12:42:03;;;;;;;5.53;3.20;;;22.00;70.10;;;;;;5139924;27;20057;-64
2022/04/21 12:44:29;;;;;;;5.90;3.17;;;22.10;70.00;;;;;;5140198;27;20038;-65
2022/04/21 12:47:01;;;;;;;8.55;3.78;;;21.90;69.80;;;;;;5137613;27;20041;-65
2022/04/21 12:49:55;;;;;;;5.57;3.50;;;22.20;66.00;;;;;;5136271;27;20045;-68
2022/04/21 12:52:40;;;;;;;6.00;3.55;;;21.70;69.80;;;;;;5136475;27;20078;-65
2022/04/21 12:55:16;;;;;;;5.60;3.55;;;22.00;70.10;;;;;;5156977;27;20054;-67
2022/04/21 12:57:42;;;;;;;6.15;3.38;;;22.10;70.10;;;;;;5158748;27;20052;-70
2022/04/21 13:00:09;;;;;;;10.07;3.58;;;22.10;67.10;;;;;;5155968;27;20121;-70
2022/04/21 13:02:35;;;;;;;10.52;3.40;;;22.00;67.30;;;;;;5157401;27;20046;-70
2022/04/21 13:05:01;;;;;;;6.75;3.10;;;22.00;70.60;;;;;;5138943;27;20487;-70
2022/04/21 13:07:27;;;;;;;12.82;3.55;;;22.00;70.80;;;;;;5157387;27;20125;-70
2022/04/21 13:09:53;;;;;;;7.68;3.65;;;21.70;70.60;;;;;;5139530;27;20046;-68
2022/04/21 13:12:19;;;;;;;7.72;3.65;;;22.10;70.80;;;;;;5175550;27;20049;-66
2022/04/21 13:14:45;;;;;;;7.88;3.85;;;21.80;70.80;;;;;;5175940;27;20035;-69
2022/04/21 13:17:11;;;;;;;13.82;3.88;;;21.80;67.90;;;;;;5157115;27;20069;-69
2022/04/21 13:19:36;;;;;;;7.72;3.45;;;22.00;67.80;;;;;;5175648;27;20171;-66
2022/04/21 13:22:03;;;;;;;5.38;3.42;;;22.00;71.00;;;;;;5156670;27;20042;-70
2022/04/21 13:24:29;;;;;;;6.72;3.47;;;21.80;70.90;;;;;;5140101;27;20487;-67
2022/04/21 13:26:56;;;;;;;8.60;4.20;;;21.90;71.30;;;;;;5156478;27;20053;-69
2022/04/21 13:29:22;;;;;;;6.38;3.72;;;22.00;71.70;;;;;;5175576;27;20429;-71
2022/04/21 13:34:34;;;;;;;5.63;3.42;;;21.90;71.50;;;;;;5163737;27;20038;-70
2022/04/21 13:37:01;;;;;;;5.95;3.90;;;22.00;68.50;;;;;;5160832;27;20407;-66
2022/04/21 13:39:27;;;;;;;5.85;3.72;;;21.90;68.90;;;;;;5180022;27;20428;-71
2022/04/21 13:41:53;;;;;;;7.18;3.97;;;22.00;72.50;;;;;;5143563;27;20487;-69
2022/04/21 13:44:19;;;;;;;6.18;3.65;;;21.80;71.80;;;;;;5160455;27;20047;-67
2022/04/21 13:46:44;;;;;;;6.45;3.90;;;21.90;71.90;;;;;;5160338;27;20522;-67
2022/04/21 13:49:10;;;;;;;7.75;4.13;;;21.90;71.90;;;;;;5123452;27;20048;-67
2022/04/21 13:51:37;;;;;;;7.95;4.50;;;21.80;71.80;;;;;;5122712;27;20051;-72
2022/04/21 13:54:03;;;;;;;6.78;4.60;;;22.00;72.50;;;;;;5122287;27;20047;-71
2022/04/21 13:56:29;;;;;;;8.07;5.05;;;21.90;72.00;;;;;;5122550;27;20046;-67
2022/04/21 13:58:55;;;;;;;6.47;4.07;;;21.90;71.80;;;;;;5139426;27;20046;-65
2022/04/21 14:01:21;;;;;;;7.70;4.40;;;22.00;72.00;;;;;;5128627;27;20044;-71
2022/04/21 14:03:48;;;;;;;8.02;4.65;;;21.90;72.20;;;;;;5143191;27;20133;-70
2022/04/21 14:06:14;;;;;;;6.38;4.25;;;21.80;69.10;;;;;;5160266;27;20042;-68
2022/04/21 14:08:42;;;;;;;7.40;4.40;;;21.90;72.50;;;;;;5142676;27;20056;-66
2022/04/21 14:11:07;;;;;;;6.80;4.40;;;21.80;69.60;;;;;;5178791;27;20053;-69
2022/04/21 14:13:33;;;;;;;6.50;4.15;;;22.00;72.30;;;;;;5176635;27;20038;-70
2022/04/21 14:16:00;;;;;;;8.88;4.60;;;22.10;72.60;;;;;;5138901;27;20035;-70
2022/04/21 14:18:26;;;;;;;8.48;4.25;;;22.00;72.30;;;;;;5137812;27;20090;-69
2022/04/21 14:20:52;;;;;;;10.20;4.28;;;22.10;69.60;;;;;;5122211;27;20134;-70
2022/04/21 14:23:19;;;;;;;12.30;4.75;;;22.00;72.20;;;;;;5157952;27;20135;-65
2022/04/21 14:25:46;;;;;;;7.72;4.45;;;22.00;72.30;;;;;;5139026;27;20131;-66
2022/04/21 14:28:11;;;;;;;10.50;4.53;;;21.90;69.20;;;;;;5121834;27;20492;-68
2022/04/21 14:30:37;;;;;;;7.90;4.28;;;22.00;69.30;;;;;;5121242;27;20183;-67
2022/04/21 14:33:03;;;;;;;8.18;4.90;;;22.00;72.60;;;;;;5139032;27;20196;-70
2022/04/21 14:35:29;;;;;;;9.05;4.72;;;22.10;69.30;;;;;;5148745;27;20042;-67
2022/04/21 14:46:07;;;;;;;10.95;4.85;;;22.30;72.40;;;;;;5144794;27;20109;-63
2022/04/21 14:48:32;;;;;;;6.80;4.63;;;22.00;72.30;;;;;;5177986;27;20046;-70
2022/04/21 14:50:58;;;;;;;7.97;4.60;;;22.20;72.40;;;;;;5175986;27;20035;-62
2022/04/21 14:53:25;;;;;;;7.40;4.40;;;22.00;72.50;;;;;;5176600;27;20039;-63
2022/04/21 14:55:51;;;;;;;9.93;4.93;;;22.20;71.60;;;;;;5159837;27;20074;-63
2022/04/21 14:58:21;;;;;;;7.55;5.07;;;22.10;73.40;;;;;;5157072;27;20057;-67
2022/04/21 15:00:47;;;;;;;7.90;4.63;;;;;;;;;;5166120;27;20183;-69
2022/04/21 15:03:13;;;;;;;8.07;4.95;;;21.90;72.90;;;;;;5138325;27;20050;-70
2022/04/21 15:05:40;;;;;;;8.10;4.97;;;22.00;73.50;;;;;;5138331;27;20487;-69
2022/04/21 15:08:09;;;;;;;6.72;4.53;;;21.90;72.70;;;;;;5138517;27;20054;-70
2022/04/21 15:10:40;;;;;;;7.22;4.18;;;22.00;73.00;;;;;;5173507;27;20379;-69
2022/04/21 15:13:09;;;;;;;7.07;4.50;;;22.10;73.00;;;;;;5158770;27;20466;-70
2022/04/21 15:15:38;;;;;;;8.52;4.60;;;21.90;72.90;;;;;;5158781;27;20049;-70
2022/04/21 15:18:04;;;;;;;7.70;4.72;;;;;;;;;;5177732;27;20451;-69
2022/04/21 15:20:30;;;;;;;6.20;4.43;;;21.70;73.20;;;;;;5177639;27;20074;-69
2022/04/21 15:22:57;;;;;;;8.65;4.90;;;22.00;73.30;;;;;;5177595;27;20050;-70
2022/04/21 15:25:23;;;;;;;7.43;5.38;;;21.90;73.40;;;;;;5177563;27;20042;-69
2022/04/21 15:27:50;;;;;;;9.43;5.05;;;21.70;73.40;;;;;;5177359;27;20394;-70
2022/04/21 15:30:16;;;;;;;8.55;5.18;;;21.60;70.60;;;;;;5176976;27;20507;-66
2022/04/21 15:32:42;;;;;;;7.40;4.70;;;21.90;73.80;;;;;;5156179;27;20050;-69
2022/04/21 15:35:08;;;;;;;10.18;5.38;;;21.80;73.70;;;;;;5177040;27;20042;-69
2022/04/21 15:37:34;;;;;;;7.43;5.18;;;21.90;73.50;;;;;;5172602;27;20391;-70
2022/04/21 15:40:04;;;;;;;7.18;4.72;;;21.80;73.80;;;;;;5139785;27;20042;-67
2022/04/21 15:42:30;;;;;;;13.02;6.68;;;21.70;70.40;;;;;;5158212;27;20103;-69
2022/04/21 15:44:55;;;;;;;7.45;4.88;;;21.90;73.80;;;;;;5140804;27;20073;-70
2022/04/21 15:47:22;;;;;;;8.02;5.32;;;21.60;73.80;;;;;;5176795;27;20128;-68
2022/04/21 15:49:47;;;;;;;12.70;5.40;;;21.50;73.60;;;;;;5158316;27;20394;-72
2022/04/21 15:52:13;;;;;;;19.98;5.28;;;21.60;70.80;;;;;;5176647;27;20046;-70
2022/04/21 16:00:08;;;;;;;9.23;5.25;;;21.80;74.10;;;;;;5156299;27;20050;-72
2022/04/21 16:02:34;;;;;;;10.85;5.25;;;21.70;70.90;;;;;;5157523;27;20042;-70
2022/04/21 16:05:00;;;;;;;10.73;5.57;;;21.50;73.70;;;;;;5175972;27;20050;-65
2022/04/21 16:07:26;;;;;;;9.30;4.90;;;21.40;73.80;;;;;;5176844;27;20103;-70
2022/04/21 16:09:52;;;;;;;8.85;5.53;;;21.80;70.80;;;;;;5140730;27;20177;-65
2022/04/21 16:12:18;;;;;;;8.18;4.70;;;21.60;71.00;;;;;;5175089;27;20482;-70
2022/04/21 16:14:44;;;;;;;8.40;5.30;;;21.50;74.40;;;;;;5140808;27;20046;-69
2022/04/21 16:17:09;;;;;;;8.32;4.43;;;21.40;71.00;;;;;;5140335;27;20399;-69
2022/04/21 16:19:35;;;;;;;9.30;4.90;;;21.50;70.80;;;;;;5140204;27;20057;-67
2022/04/21 16:22:01;;;;;;;16.17;8.18;;;21.30;73.80;;;;;;5138988;27;20046;-70
2022/04/21 16:24:27;;;;;;;15.77;8.20;;;21.40;74.10;;;;;;5140189;27;20048;-71
2022/04/21 16:26:54;;;;;;;15.15;8.57;;;21.50;74.60;;;;;;5175014;27;20117;-66
2022/04/21 16:29:21;;;;;;;15.18;8.43;;;21.50;71.40;;;;;;5140316;27;20498;-70
2022/04/21 16:31:49;;;;;;;19.25;8.10;;;21.60;74.50;;;;;;5138753;27;20102;-67
2022/04/21 16:34:18;;;;;;;13.75;8.30;;;21.50;71.70;;;;;;5140048;27;20046;-68
2022/04/21 16:36:44;;;;;;;17.38;7.97;;;21.40;75.00;;;;;;5175598;27;20038;-71
2022/04/21 16:39:10;;;;;;;16.85;7.75;;;21.40;74.70;;;;;;5157347;27;20459;-70
2022/04/21 16:41:35;;;;;;;13.90;8.07;;;21.50;71.80;;;;;;5139158;27;20038;-70
2022/04/21 16:44:01;;;;;;;13.63;8.90;;;21.40;72.00;;;;;;5138845;27;20043;-69
2022/04/21 16:46:27;;;;;;;37.80;29.30;;;21.30;71.70;;;;;;5157004;27;20046;-69
2022/04/21 16:48:52;;;;;;;204.10;108.95;;;21.20;71.60;;;;;;5122772;27;20046;-70
2022/04/21 16:51:18;;;;;;;121.25;66.80;;;21.10;71.80;;;;;;5122430;27;20408;-71
2022/04/21 16:53:44;;;;;;;115.45;65.47;;;21.40;72.30;;;;;;5155979;27;20082;-70
2022/04/21 16:56:13;;;;;;;110.32;60.15;;;21.10;74.80;;;;;;5174802;27;20042;-70
2022/04/21 16:58:39;;;;;;;100.35;53.95;;;21.40;75.10;;;;;;5140329;27;20427;-71
2022/04/21 17:03:49;;;;;;;89.15;48.97;;;21.30;75.50;;;;;;5155699;27;20050;-70
2022/04/21 17:06:15;;;;;;;88.35;50.40;;;21.70;76.10;;;;;;5152316;27;20454;-71
2022/04/21 17:08:41;;;;;;;88.35;48.60;;;21.40;75.20;;;;;;5165568;27;20046;-66
2022/04/21 17:11:07;;;;;;;82.53;46.95;;;21.40;72.20;;;;;;5180230;27;20402;-66
2022/04/21 17:13:33;;;;;;;80.00;43.88;;;21.30;75.50;;;;;;5161073;27;20073;-72
2022/04/21 17:15:59;;;;;;;77.60;46.95;;;21.20;75.20;;;;;;5159215;27;20482;-67
2022/04/21 17:18:25;;;;;;;83.45;45.33;;;21.50;74.40;;;;;;5143549;27;20049;-63
2022/04/21 17:20:51;;;;;;;73.85;41.53;;;21.10;72.10;;;;;;5179622;27;20031;-70
2022/04/21 17:23:17;;;;;;;83.03;42.28;;;21.20;72.50;;;;;;5161803;27;20140;-66
2022/04/21 17:25:42;;;;;;;78.63;40.22;;;21.10;75.50;;;;;;5179812;27;20045;-66
2022/04/21 17:28:08;;;;;;;69.63;38.03;;;21.30;75.50;;;;;;5142081;27;20490;-73
2022/04/21 17:30:35;;;;;;;62.40;36.05;;;21.20;75.60;;;;;;5153945;27;20556;-70
2022/04/21 17:33:01;;;;;;;66.28;35.33;;;21.30;72.70;;;;;;5139991;27;20522;-71
2022/04/21 17:35:27;;;;;;;58.78;32.58;;;21.20;75.40;;;;;;5122951;27;20042;-70
2022/04/21 17:37:53;;;;;;;65.20;35.05;;;21.30;75.70;;;;;;5146793;27;20077;-70
2022/04/21 17:40:19;;;;;;;62.25;33.53;;;21.10;72.60;;;;;;5143615;27;20113;-70
2022/04/21 17:42:45;;;;;;;62.97;32.45;;;21.20;75.90;;;;;;5179517;27;20113;-71
2022/04/21 17:45:11;;;;;;;66.35;33.58;;;21.10;75.80;;;;;;5179603;27;20046;-73
2022/04/21 17:47:36;;;;;;;58.58;33.08;;;21.20;72.80;;;;;;5160617;27;20073;-72
2022/04/21 17:50:03;;;;;;;56.85;30.23;;;21.10;75.70;;;;;;5137843;27;20043;-70
2022/04/21 17:52:28;;;;;;;54.30;28.88;;;21.10;75.60;;;;;;5157256;27;20083;-71
2022/04/21 17:54:54;;;;;;;48.22;27.30;;;20.90;75.90;;;;;;5158842;27;20471;-67
2022/04/21 17:57:20;;;;;;;49.88;25.00;;;21.00;75.60;;;;;;5159002;27;20046;-72
2022/04/21 17:59:48;;;;;;;47.72;27.65;;;;;;;;;;5157166;27;20054;-70
2022/04/21 18:02:14;;;;;;;50.28;27.25;;;20.80;75.60;;;;;;5160279;27;20117;-71
2022/04/21 18:04:40;;;;;;;47.42;25.58;;;21.10;76.30;;;;;;5160276;27;20125;-70
2022/04/21 18:07:06;;;;;;;48.33;25.60;;;21.10;75.80;;;;;;5176812;27;20070;-70
2022/04/21 18:09:32;;;;;;;46.65;24.75;;;20.90;72.80;;;;;;5177883;27;20556;-68
2022/04/21 18:11:57;;;;;;;42.42;22.20;;;20.90;71.80;;;;;;5179039;27;20042;-71
2022/04/21 18:14:23;;;;;;;42.92;22.70;;;20.90;75.90;;;;;;5178973;27;20399;-68
2022/04/21 18:16:49;;;;;;;39.90;22.10;;;20.90;76.30;;;;;;5159383;27;20050;-73
2022/04/21 18:19:15;;;;;;;40.08;21.48;;;;;;;;;;5177843;27;20042;-72
2022/04/21 18:21:42;;;;;;;39.10;20.75;;;20.90;75.90;;;;;;5178685;27;20045;-72
2022/04/21 18:24:08;;;;;;;40.83;19.60;;;;;;;;;;5143551;27;20156;-71
2022/04/21 18:26:34;;;;;;;40.08;20.48;;;20.80;75.90;;;;;;5142775;27;20081;-73
2022/04/21 18:29:00;;;;;;;36.70;19.90;;;20.80;76.30;;;;;;5178574;27;20074;-70
2022/04/21 18:31:25;;;;;;;37.65;19.30;;;20.80;76.10;;;;;;5177023;27;20399;-64
2022/04/21 18:33:51;;;;;;;35.20;18.60;;;21.00;76.40;;;;;;5142251;27;20492;-66
2022/04/21 18:36:17;;;;;;;30.23;16.23;;;20.80;76.00;;;;;;5160774;27;20046;-72
2022/04/21 18:38:43;;;;;;;31.85;16.98;;;20.90;75.90;;;;;;5175415;27;20046;-67
2022/04/21 18:41:09;;;;;;;28.77;16.83;;;20.70;76.20;;;;;;5177407;27;20117;-68
2022/04/21 18:43:35;;;;;;;31.35;16.42;;;20.90;76.20;;;;;;5178131;27;20049;-71
2022/04/21 18:46:01;;;;;;;32.45;17.27;;;20.70;76.30;;;;;;5159381;27;20043;-66
2022/04/21 18:48:27;;;;;;;26.98;14.35;;;20.80;73.20;;;;;;5176826;27;20046;-73
2022/04/21 18:50:56;;;;;;;26.88;14.85;;;20.80;76.10;;;;;;5170342;27;20179;-70
2022/04/21 18:53:22;;;;;;;28.35;13.90;;;20.50;75.90;;;;;;5156567;27;20065;-73
2022/04/21 18:55:48;;;;;;;28.15;14.45;;;20.50;76.10;;;;;;5142549;27;20483;-73
2022/04/21 18:58:23;;;;;;;26.30;14.20;;;20.60;72.70;;;;;;5177495;27;20195;-72
2022/04/21 19:00:53;;;;;;;25.55;13.20;;;20.70;72.30;;;;;;5159313;27;20049;-64
2022/04/21 19:03:20;;;;;;;23.13;11.60;;;20.30;76.10;;;;;;5141773;27;20042;-69
2022/04/21 19:05:46;;;;;;;23.85;14.05;;;20.90;76.70;;;;;;5177738;27;20042;-66
2022/04/21 19:08:12;;;;;;;23.67;11.32;;;20.60;76.20;;;;;;5158552;27;20057;-70
2022/04/21 19:10:38;;;;;;;22.10;11.77;;;20.60;73.10;;;;;;5177944;27;20030;-65
2022/04/21 19:13:04;;;;;;;25.17;12.15;;;20.60;76.30;;;;;;5138785;27;20145;-72
2022/04/21 19:15:31;;;;;;;19.70;10.98;;;20.40;76.60;;;;;;5177435;27;20079;-74
2022/04/21 19:17:57;;;;;;;20.90;11.60;;;20.50;73.20;;;;;;5158645;27;20164;-67
2022/04/21 19:20:24;;;;;;;19.15;10.60;;;20.60;76.70;;;;;;5159043;27;20046;-73
2022/04/21 19:22:51;;;;;;;17.42;9.68;;;20.60;76.60;;;;;;5141237;27;20040;-73
2022/04/21 19:25:17;;;;;;;17.13;9.27;;;20.70;76.70;;;;;;5157343;27;20530;-71
2022/04/21 19:27:46;;;;;;;19.60;11.05;;;20.50;76.90;;;;;;5141443;27;20034;-73
2022/04/21 19:30:14;;;;;;;18.08;9.07;;;20.70;76.70;;;;;;5141501;27;20061;-65
2022/04/21 19:32:41;;;;;;;17.38;9.13;;;20.50;76.70;;;;;;5141382;27;20043;-68
2022/04/21 19:35:07;;;;;;;18.45;9.93;;;20.60;76.80;;;;;;5140268;27;20129;-66
2022/04/21 19:37:33;;;;;;;18.88;10.73;;;20.60;77.60;;;;;;5141207;27;20045;-65
2022/04/21 19:39:59;;;;;;;17.48;9.57;;;20.50;78.20;;;;;;5158424;27;20065;-66
2022/04/21 19:42:25;;;;;;;17.65;9.25;;;20.70;77.60;;;;;;5176774;27;20037;-64
2022/04/21 19:44:51;;;;;;;22.13;9.30;;;20.70;74.00;;;;;;5157994;27;20035;-65
2022/04/21 19:47:18;;;;;;;18.15;8.75;;;20.60;77.80;;;;;;5176888;27;20042;-66
2022/04/21 19:49:44;;;;;;;15.07;8.88;;;20.50;78.10;;;;;;5154530;27;20049;-66
2022/04/21 19:52:10;;;;;;;16.25;8.50;;;20.50;77.90;;;;;;5156207;27;20043;-66
2022/04/21 19:54:39;;;;;;;17.65;8.35;;;20.60;75.00;;;;;;5156092;27;20072;-64
2022/04/21 19:57:05;;;;;;;18.38;8.65;;;20.60;78.30;;;;;;5176394;27;20109;-67
2022/04/21 19:59:32;;;;;;;15.45;8.02;;;20.60;78.10;;;;;;5176618;27;20436;-66
2022/04/21 20:01:58;;;;;;;15.88;7.68;;;20.60;78.70;;;;;;5176912;27;20052;-64
2022/04/21 20:04:25;;;;;;;15.82;7.82;;;20.60;78.60;;;;;;5157602;27;20103;-69
2022/04/21 20:09:37;;;;;;;16.50;7.75;;;20.50;74.30;;;;;;5176802;27;20050;-65
2022/04/21 20:12:03;;;;;;;15.07;8.00;;;20.70;78.70;;;;;;5175807;27;20046;-67
2022/04/21 20:14:29;;;;;;;17.88;7.30;;;20.40;78.30;;;;;;5176621;27;20391;-64
2022/04/21 20:16:55;;;;;;;14.32;7.20;;;20.40;78.40;;;;;;5156319;27;20042;-65
2022/04/21 20:22:14;;;;;;;15.32;7.43;;;20.50;78.40;;;;;;5176245;27;20134;-67
2022/04/21 20:27:26;;;;;;;12.40;7.10;;;20.40;75.70;;;;;;5159464;27;20040;-64
2022/04/21 20:29:52;;;;;;;10.68;6.13;;;20.70;78.60;;;;;;5176043;27;20103;-65
2022/04/21 20:32:20;;;;;;;16.38;6.60;;;20.50;78.80;;;;;;5140388;27;20050;-64
2022/04/21 20:34:48;;;;;;;14.43;7.10;;;20.80;78.10;;;;;;5140613;27;20528;-68
2022/04/21 20:37:14;;;;;;;13.05;7.10;;;20.40;79.10;;;;;;5157108;27;20069;-64
2022/04/21 20:39:42;;;;;;;10.68;5.95;;;20.50;76.10;;;;;;5175033;27;20117;-65
2022/04/21 20:42:11;;;;;;;11.57;5.88;;;20.50;75.80;;;;;;5156787;27;20046;-68
2022/04/21 20:44:39;;;;;;;13.35;7.93;;;20.40;80.30;;;;;;5140271;27;20050;-62
2022/04/21 20:47:05;;;;;;;14.27;6.90;;;20.40;76.80;;;;;;5157289;27;20479;-62
2022/04/21 20:49:32;;;;;;;11.18;6.32;;;20.40;76.90;;;;;;5149319;27;20041;-62
2022/04/21 20:51:58;;;;;;;10.88;5.95;;;20.40;79.90;;;;;;5175285;27;20155;-63
2022/04/21 20:54:24;;;;;;;10.73;6.13;;;20.50;80.20;;;;;;5157535;27;20042;-63
2022/04/21 20:56:53;;;;;;;9.40;6.20;;;20.40;80.10;;;;;;5157004;27;20098;-63
2022/04/21 20:59:19;;;;;;;10.77;6.20;;;20.40;79.60;;;;;;5175020;27;20103;-63
2022/04/21 21:01:45;;;;;;;13.02;6.38;;;20.50;79.70;;;;;;5156907;27;20046;-62
2022/04/21 21:04:11;;;;;;;11.02;5.82;;;20.40;79.50;;;;;;5138755;27;20053;-62
2022/04/21 21:09:21;;;;;;;10.65;6.00;;;20.60;79.90;;;;;;5156117;27;20042;-63
2022/04/21 21:11:47;;;;;;;11.15;5.85;;;20.30;76.10;;;;;;5175677;27;20062;-63
2022/04/21 21:14:14;;;;;;;12.75;5.80;;;20.40;79.60;;;;;;5175907;27;20082;-63
2022/04/21 21:16:42;;;;;;;9.35;5.22;;;20.30;76.80;;;;;;5139384;27;20038;-63
2022/04/21 21:19:10;;;;;;;9.98;5.68;;;20.20;79.40;;;;;;5176262;27;20042;-63
2022/04/21 21:21:37;;;;;;;10.88;5.20;;;;;;;;;;5156991;27;20135;-63
2022/04/21 21:24:03;;;;;;;9.88;5.30;;;20.20;79.80;;;;;;5175864;27;20045;-63
2022/04/21 21:26:28;;;;;;;12.13;5.22;;;20.30;79.60;;;;;;5174082;27;20030;-62
2022/04/21 21:28:54;;;;;;;10.55;5.90;;;20.20;79.30;;;;;;5175379;27;20401;-63
2022/04/21 21:31:20;;;;;;;11.43;5.38;;;20.00;79.50;;;;;;5175511;27;20051;-63
2022/04/21 21:33:46;;;;;;;11.23;5.28;;;20.30;76.40;;;;;;5139660;27;20487;-63
2022/04/21 21:36:12;;;;;;;11.45;5.57;;;20.10;76.30;;;;;;5156991;27;20402;-63
2022/04/21 21:38:40;;;;;;;11.50;5.70;;;20.10;79.50;;;;;;5174866;27;20172;-69
2022/04/21 21:41:07;;;;;;;10.65;5.65;;;20.30;79.30;;;;;;5156741;27;20094;-63
2022/04/21 21:43:34;;;;;;;8.23;4.72;;;20.40;79.70;;;;;;5139856;27;20073;-69
2022/04/21 21:46:00;;;;;;;9.75;5.47;;;20.40;76.60;;;;;;5139651;27;20050;-63
2022/04/21 21:53:53;;;;;;;9.55;5.00;;;20.00;79.10;;;;;;5158132;27;20047;-65
2022/04/21 21:56:20;;;;;;;10.95;5.03;;;19.90;79.20;;;;;;5139823;27;20126;-63
2022/04/21 21:58:46;;;;;;;11.82;5.22;;;20.20;79.30;;;;;;5139568;27;20191;-65
2022/04/21 22:01:12;;;;;;;9.68;4.90;;;20.20;79.20;;;;;;5160236;27;20376;-63
2022/04/21 22:03:37;;;;;;;9.02;4.93;;;20.20;79.00;;;;;;5179234;27;20045;-66
2022/04/21 22:06:03;;;;;;;8.63;4.82;;;20.10;79.00;;;;;;5160324;27;20451;-63
2022/04/21 22:08:29;;;;;;;9.98;5.13;;;19.80;78.80;;;;;;5178033;27;20033;-65
2022/04/21 22:10:55;;;;;;;9.52;5.15;;;20.20;79.00;;;;;;5179082;27;20041;-63
2022/04/21 22:13:20;;;;;;;9.20;4.93;;;20.10;79.40;;;;;;5160252;27;20491;-64
2022/04/21 22:15:47;;;;;;;7.75;5.20;;;;;;;;;;5143013;27;20497;-63
2022/04/21 22:18:12;;;;;;;10.68;4.50;;;20.00;78.80;;;;;;5177292;27;20170;-63
2022/04/21 22:20:38;;;;;;;7.65;4.60;;;20.00;75.80;;;;;;5176960;27;20125;-63
2022/04/21 22:23:07;;;;;;;7.55;4.72;;;20.00;78.00;;;;;;5178578;27;20046;-64
2022/04/21 22:25:33;;;;;;;9.40;4.57;;;20.10;79.40;;;;;;5178843;27;20091;-66
2022/04/21 22:27:59;;;;;;;8.80;4.70;;;;;;;;;;5158517;27;20038;-66
2022/04/21 22:30:26;;;;;;;7.85;4.55;;;19.70;78.90;;;;;;5157607;27;20042;-68
2022/04/21 22:32:51;;;;;;;9.85;4.40;;;19.90;76.00;;;;;;5178226;27;20046;-65
2022/04/21 22:35:17;;;;;;;7.90;4.85;;;19.60;78.80;;;;;;5160168;27;20038;-65
2022/04/21 22:37:43;;;;;;;8.70;4.97;;;19.90;79.00;;;;;;5178656;27;20042;-63
2022/04/21 22:40:09;;;;;;;9.10;4.63;;;19.80;78.90;;;;;;5177000;27;20098;-65
2022/04/21 22:42:36;;;;;;;8.02;4.53;;;20.00;79.00;;;;;;5177939;27;20074;-64
2022/04/21 22:45:03;;;;;;;7.55;4.15;;;19.90;76.20;;;;;;5159650;27;20046;-64
2022/04/21 22:47:29;;;;;;;8.15;4.35;;;19.70;79.00;;;;;;5178441;27;20125;-69
2022/04/21 22:49:55;;;;;;;7.88;4.40;;;19.80;78.90;;;;;;5159193;27;20082;-67
2022/04/21 22:52:21;;;;;;;10.00;5.40;;;19.90;79.30;;;;;;5175963;27;20395;-69
2022/04/21 22:54:47;;;;;;;8.25;4.57;;;;;;;;;;5159311;27;20042;-64
2022/04/21 22:57:13;;;;;;;8.63;4.60;;;;;;;;;;5159599;27;20137;-65
2022/04/21 22:59:39;;;;;;;8.38;4.70;;;19.70;74.10;;;;;;5158472;27;20026;-64
2022/04/21 23:02:05;;;;;;;8.45;4.45;;;19.70;78.80;;;;;;5157450;27;20496;-63
2022/04/21 23:04:31;;;;;;;8.15;4.45;;;19.70;78.70;;;;;;5159177;27;20034;-69
2022/04/21 23:06:57;;;;;;;9.07;4.55;;;19.70;78.70;;;;;;5176778;27;20061;-67
2022/04/21 23:14:51;;;;;;;8.93;4.95;;;19.60;78.70;;;;;;5177839;27;20133;-64
2022/04/21 23:17:17;;;;;;;10.02;4.28;;;19.90;78.90;;;;;;5158903;27;20186;-67
2022/04/21 23:19:46;;;;;;;10.27;4.68;;;19.90;75.50;;;;;;5159168;27;20069;-67
2022/04/21 23:22:15;;;;;;;8.25;4.78;;;19.80;73.70;;;;;;5157582;27;20042;-69
2022/04/21 23:24:41;;;;;;;10.02;4.63;;;19.90;75.70;;;;;;5157413;27;20038;-69
2022/04/21 23:27:07;;;;;;;8.30;4.30;;;19.80;78.40;;;;;;5141559;27;20054;-63
2022/04/21 23:29:33;;;;;;;7.90;4.47;;;20.00;79.10;;;;;;5141074;27;20402;-69
2022/04/21 23:31:59;;;;;;;8.00;4.20;;;19.90;75.60;;;;;;5124243;27;20157;-66
2022/04/21 23:34:25;;;;;;;8.68;4.22;;;20.00;78.60;;;;;;5140001;27;20101;-68
2022/04/21 23:36:51;;;;;;;8.82;4.47;;;19.80;75.50;;;;;;5159033;27;20079;-69
2022/04/21 23:39:17;;;;;;;8.73;3.95;;;19.80;78.40;;;;;;5158489;27;20137;-66
2022/04/21 23:41:43;;;;;;;8.88;3.95;;;19.90;78.70;;;;;;5177607;27;20471;-68
2022/04/21 23:44:09;;;;;;;9.07;4.53;;;19.70;78.30;;;;;;5140390;27;20398;-64
2022/04/21 23:46:35;;;;;;;8.48;5.03;;;19.80;78.50;;;;;;5176969;27;20422;-63
2022/04/21 23:49:01;;;;;;;8.40;4.43;;;19.70;78.30;;;;;;5176375;27;20121;-69
2022/04/21 23:51:27;;;;;;;8.05;4.30;;;19.70;78.50;;;;;;5158214;27;20470;-68
2022/04/21 23:53:53;;;;;;;7.85;4.47;;;19.60;78.40;;;;;;5175962;27;20046;-67
2022/04/21 23:56:19;;;;;;;7.97;4.50;;;20.00;75.60;;;;;;5138909;27;20038;-64
2022/04/21 23:58:45;;;;;;;7.35;4.20;;;19.60;79.10;;;;;;5176536;27;20057;-65
